TimeEST,TemperatureF,Dew PointF,Humidity,Sea Level PressureIn,VisibilityMPH,Wind Direction,Wind SpeedMPH,Gust SpeedMPH,PrecipitationIn,Events,Conditions,WindDirDegrees,DateUTC
12:21 AM,37.4,37.4,100,29.44,3.0,NNW,5.8,-,0.00,Rain,Light Rain,330,2012-12-19 05:21:00
12:51 AM,37.9,37.9,100,29.45,9.0,NW,5.8,-,0.01,Rain,Light Rain,320,2012-12-19 05:51:00
1:34 AM,37.4,37.4,100,29.45,6.0,WNW,6.9,-,0.00,Rain,Light Rain,300,2012-12-19 06:34:00
1:51 AM,37.9,37.9,100,29.46,4.0,WNW,5.8,-,0.00,,Overcast,290,2012-12-19 06:51:00
2:51 AM,37.9,37.0,97,29.47,10.0,NW,6.9,-,0.01,Rain,Light Rain,310,2012-12-19 07:51:00
3:51 AM,37.9,36.0,93,29.47,10.0,NW,10.4,-,0.00,,Overcast,310,2012-12-19 08:51:00
4:22 AM,37.4,35.6,93,29.47,10.0,WNW,9.2,-,N/A,,Overcast,300,2012-12-19 09:22:00
4:51 AM,37.9,35.1,89,29.49,10.0,NW,9.2,-,N/A,,Overcast,310,2012-12-19 09:51:00
5:51 AM,37.0,34.0,89,29.51,10.0,NW,16.1,-,N/A,,Overcast,310,2012-12-19 10:51:00
6:51 AM,37.0,32.0,82,29.53,10.0,NW,12.7,21.9,N/A,,Overcast,310,2012-12-19 11:51:00
7:51 AM,36.0,30.9,82,29.57,10.0,NW,15.0,23.0,0.00,Rain,Light Rain,310,2012-12-19 12:51:00
8:51 AM,37.9,30.9,76,29.59,10.0,NW,11.5,20.7,0.00,,Mostly Cloudy,310,2012-12-19 13:51:00
9:51 AM,41.0,32.0,70,29.62,10.0,NW,13.8,20.7,N/A,,Partly Cloudy,310,2012-12-19 14:51:00
10:51 AM,42.1,30.0,62,29.62,10.0,NNW,19.6,26.5,N/A,,Clear,330,2012-12-19 15:51:00
11:51 AM,43.0,28.9,58,29.65,10.0,NNW,13.8,29.9,N/A,,Clear,340,2012-12-19 16:51:00
12:51 PM,43.0,28.9,58,29.68,10.0,NNW,16.1,26.5,N/A,,Clear,330,2012-12-19 17:51:00
1:51 PM,41.0,30.0,65,29.72,10.0,NW,17.3,24.2,N/A,,Overcast,310,2012-12-19 18:51:00
2:51 PM,41.0,30.0,65,29.76,10.0,NW,13.8,24.2,N/A,,Overcast,320,2012-12-19 19:51:00
3:51 PM,39.0,28.9,67,29.80,10.0,NW,11.5,19.6,N/A,,Overcast,320,2012-12-19 20:51:00
4:51 PM,37.9,28.9,70,29.85,10.0,NW,8.1,-,N/A,,Overcast,320,2012-12-19 21:51:00
5:51 PM,37.0,28.9,73,29.87,10.0,NNW,9.2,21.9,N/A,,Scattered Clouds,330,2012-12-19 22:51:00
6:51 PM,36.0,28.9,76,29.91,10.0,NNW,6.9,-,N/A,,Partly Cloudy,330,2012-12-19 23:51:00
7:51 PM,35.1,28.0,76,29.95,10.0,NW,9.2,-,N/A,,Partly Cloudy,320,2012-12-20 00:51:00
8:51 PM,36.0,28.0,73,29.98,10.0,NW,11.5,21.9,N/A,,Partly Cloudy,320,2012-12-20 01:51:00
9:51 PM,36.0,28.0,73,30.00,10.0,NW,12.7,-,N/A,,Scattered Clouds,320,2012-12-20 02:51:00
10:51 PM,36.0,28.0,73,30.02,10.0,NNW,9.2,-,N/A,,Clear,330,2012-12-20 03:51:00
11:51 PM,34.0,28.0,79,30.04,10.0,NW,6.9,-,N/A,,Overcast,310,2012-12-20 04:51:00